Аэропорт: Усть-Каменогорск. Усть-Каменогорск

ICAO: UASK

METAR:
2019-11-21 01:30:00
UASK 210130Z 05001MPS 5000 -SN BR BKN040 M33/M36 Q1035 R12/850238 NOSIG RMK QFE750/1000
METAR:
Информация по данной станции не доступна